createdAt,value
2022-12-15T00:01:14.895Z,3.01
2022-12-15T00:06:22.148Z,3.01
2022-12-15T00:11:29.313Z,3.01
2022-12-15T00:16:36.596Z,3.01
2022-12-15T00:21:43.719Z,3.01
2022-12-15T00:26:50.924Z,3.01
2022-12-15T00:31:58.279Z,3.01
2022-12-15T00:37:05.334Z,3.01
2022-12-15T00:42:12.515Z,2.17
2022-12-15T00:47:19.772Z,2.17
2022-12-15T00:52:26.952Z,2.17
2022-12-15T00:57:34.138Z,2.17
2022-12-15T01:02:41.552Z,2.75
2022-12-15T01:07:49.507Z,2.75
2022-12-15T01:12:55.834Z,1.90
2022-12-15T01:18:03.132Z,1.90
2022-12-15T01:23:10.296Z,1.90
2022-12-15T01:28:17.515Z,1.90
2022-12-15T01:33:24.740Z,1.90
2022-12-15T01:38:31.925Z,1.90
2022-12-15T01:43:39.225Z,1.90
2022-12-15T01:48:46.463Z,1.90
2022-12-15T01:53:53.640Z,1.60
2022-12-15T01:59:00.826Z,1.60
2022-12-15T02:04:08.057Z,1.60
2022-12-15T02:09:15.174Z,1.60
2022-12-15T02:14:22.323Z,1.60
2022-12-15T02:19:29.578Z,1.60
2022-12-15T02:24:36.784Z,1.60
2022-12-15T02:29:44.067Z,1.60
2022-12-15T02:34:51.289Z,1.60
2022-12-15T02:39:58.480Z,0.75
2022-12-15T02:45:05.621Z,0.75
2022-12-15T02:50:12.912Z,1.27
2022-12-15T02:55:20.080Z,1.27
2022-12-15T03:00:27.245Z,1.27
2022-12-15T03:05:34.484Z,1.27
2022-12-15T03:10:41.694Z,1.27
2022-12-15T03:15:48.907Z,1.27
2022-12-15T03:20:56.407Z,1.27
2022-12-15T03:26:03.293Z,1.27
2022-12-15T03:31:10.475Z,1.27
2022-12-15T03:36:17.743Z,1.27
2022-12-15T03:41:24.905Z,1.27
2022-12-15T03:46:32.082Z,1.27
2022-12-15T03:51:39.338Z,0.41
2022-12-15T03:56:46.524Z,0.41
2022-12-15T04:01:53.859Z,0.41
2022-12-15T04:07:00.963Z,0.41
2022-12-15T04:12:08.149Z,0.41
2022-12-15T04:17:15.454Z,0.41
2022-12-15T04:22:22.589Z,0.41
2022-12-15T04:27:29.828Z,0.92
2022-12-15T04:32:36.970Z,0.92
2022-12-15T04:37:44.210Z,0.92
2022-12-15T04:42:51.394Z,0.92
2022-12-15T04:47:58.593Z,0.92
2022-12-15T04:53:05.871Z,0.92
2022-12-15T04:58:13.103Z,0.92
2022-12-15T05:03:20.307Z,0.92
2022-12-15T05:08:27.542Z,0.92
2022-12-15T05:13:35.095Z,0.92
2022-12-15T05:18:41.908Z,0.06
2022-12-15T05:23:49.151Z,0.06
2022-12-15T05:28:56.389Z,0.06
2022-12-15T05:34:05.797Z,0.06
2022-12-15T05:39:10.963Z,0.06
2022-12-15T05:44:18.111Z,0.06
2022-12-15T05:49:25.337Z,0.54
2022-12-15T05:54:32.588Z,0.54
2022-12-15T05:59:39.761Z,0.54
2022-12-15T06:04:47.041Z,0.54
2022-12-15T06:09:54.209Z,0.54
2022-12-15T06:15:01.369Z,0.54
2022-12-15T06:20:08.584Z,0.54
2022-12-15T06:25:15.845Z,0.54
2022-12-15T06:30:22.995Z,0.54
2022-12-15T06:35:30.193Z,0.54
2022-12-15T06:40:38.265Z,0.54
2022-12-15T06:45:44.551Z,0.54
2022-12-15T06:50:51.759Z,0.54
2022-12-15T06:55:59.015Z,0.54
2022-12-15T07:01:06.198Z,0.54
2022-12-15T07:06:13.397Z,0.54
2022-12-15T07:11:20.663Z,0.54
2022-12-15T07:16:27.864Z,0.54
2022-12-15T07:21:34.921Z,0.54
2022-12-15T07:26:42.152Z,0.54
2022-12-15T07:31:49.413Z,0.54
2022-12-15T07:36:56.529Z,0.54
2022-12-15T07:42:03.761Z,0.54
2022-12-15T07:47:10.930Z,0.54
2022-12-15T07:52:18.144Z,0.54
2022-12-15T07:57:25.380Z,0.54
2022-12-15T08:02:32.830Z,0.54
2022-12-15T08:07:39.749Z,0.54
2022-12-15T08:12:47.012Z,0.54
2022-12-15T08:17:54.145Z,0.54
2022-12-15T08:23:01.323Z,0.54
2022-12-15T08:28:08.500Z,0.54
2022-12-15T08:33:15.687Z,0.54
2022-12-15T08:38:22.902Z,0.54
2022-12-15T08:43:30.567Z,1.01
2022-12-15T08:48:37.313Z,1.01
2022-12-15T08:53:45.104Z,0.15
2022-12-15T08:58:51.730Z,0.15
2022-12-15T09:03:58.994Z,0.15
2022-12-15T09:09:06.152Z,0.15
2022-12-15T09:14:13.362Z,0.15
2022-12-15T09:19:20.532Z,0.15
2022-12-15T09:24:34.658Z,0.15
2022-12-15T09:29:34.947Z,0.15
2022-12-15T09:34:42.159Z,0.15
2022-12-15T09:39:49.351Z,0.15
2022-12-15T09:44:56.627Z,0.15
2022-12-15T09:50:03.963Z,-0.32
2022-12-15T09:55:11.195Z,0.15
2022-12-15T10:00:18.453Z,0.15
2022-12-15T10:05:38.111Z,0.15
2022-12-15T10:10:32.743Z,0.15
2022-12-15T10:15:40.037Z,0.15
2022-12-15T10:20:48.502Z,0.15
2022-12-15T10:25:54.384Z,0.15
2022-12-15T10:31:01.727Z,0.15
2022-12-15T10:36:08.775Z,0.15
2022-12-15T10:41:15.945Z,0.15
2022-12-15T10:46:23.217Z,0.15
2022-12-15T10:51:30.381Z,0.15
2022-12-15T10:56:37.583Z,0.15
2022-12-15T11:01:45.049Z,0.15
2022-12-15T11:06:52.011Z,0.15
2022-12-15T11:11:59.197Z,0.15
2022-12-15T11:17:06.379Z,0.15
2022-12-15T11:22:13.541Z,0.15
2022-12-15T11:27:20.751Z,0.15
2022-12-15T11:32:27.963Z,0.15
2022-12-15T11:37:36.802Z,0.15
2022-12-15T11:42:42.351Z,0.15
2022-12-15T11:47:49.590Z,0.15
2022-12-15T11:52:56.778Z,0.15
2022-12-15T11:58:04.006Z,0.15
2022-12-15T12:03:11.221Z,0.15
2022-12-15T12:08:18.402Z,0.15
2022-12-15T12:13:25.612Z,0.15
2022-12-15T12:18:33.499Z,0.15
2022-12-15T12:23:40.113Z,0.15
2022-12-15T12:28:48.798Z,0.15
2022-12-15T12:33:54.540Z,0.15
2022-12-15T12:39:01.884Z,0.15
2022-12-15T12:44:09.140Z,0.15
2022-12-15T12:49:21.339Z,0.15
2022-12-15T12:54:23.521Z,0.15
2022-12-15T12:59:30.751Z,0.15
2022-12-15T13:04:37.957Z,0.15
2022-12-15T13:09:45.233Z,0.15
2022-12-15T13:14:52.418Z,0.15
2022-12-15T13:19:59.623Z,0.15
2022-12-15T13:25:06.745Z,0.15
2022-12-15T13:30:14.112Z,0.15
2022-12-15T13:35:21.190Z,0.15
2022-12-15T13:40:28.366Z,0.15
2022-12-15T13:45:35.676Z,0.15
2022-12-15T13:50:42.802Z,0.15
2022-12-15T13:55:51.171Z,0.15
2022-12-15T14:00:57.428Z,0.15
2022-12-15T14:06:04.638Z,0.15
2022-12-15T14:11:46.089Z,0.15
2022-12-15T14:16:19.147Z,0.15
2022-12-15T14:21:26.301Z,0.15
2022-12-15T14:26:33.524Z,0.15
2022-12-15T14:31:40.866Z,0.15
2022-12-15T14:36:47.946Z,0.15
2022-12-15T14:41:55.123Z,0.15
2022-12-15T14:47:02.325Z,0.15
2022-12-15T14:52:09.558Z,0.60
2022-12-15T14:57:16.761Z,0.60
2022-12-15T15:02:24.081Z,0.60
2022-12-15T15:07:31.162Z,0.15
2022-12-15T15:12:38.355Z,0.15
2022-12-15T15:17:45.567Z,0.15
2022-12-15T15:22:52.793Z,0.15
2022-12-15T15:27:59.982Z,0.15
2022-12-15T15:33:07.183Z,0.15
2022-12-15T15:38:14.410Z,0.15
2022-12-15T15:43:21.598Z,0.15
2022-12-15T15:48:29.309Z,0.15
2022-12-15T15:53:36.044Z,0.15
2022-12-15T15:58:43.202Z,0.15
2022-12-15T16:03:50.486Z,0.60
2022-12-15T16:08:57.671Z,0.60
2022-12-15T16:14:04.845Z,0.60
2022-12-15T16:19:12.062Z,0.60
2022-12-15T16:24:19.347Z,0.60
2022-12-15T16:29:26.448Z,0.60
2022-12-15T16:34:33.618Z,0.60
2022-12-15T16:39:41.045Z,0.60
2022-12-15T16:44:48.226Z,0.60
2022-12-15T16:49:55.460Z,0.60
2022-12-15T16:55:02.674Z,0.60
2022-12-15T17:00:09.902Z,0.60
2022-12-15T17:05:17.463Z,0.60
2022-12-15T17:10:25.116Z,0.60
2022-12-15T17:15:32.555Z,0.60
2022-12-15T17:20:39.681Z,0.60
2022-12-15T17:26:18.501Z,0.60
2022-12-15T17:30:54.153Z,0.60
2022-12-15T17:36:01.304Z,0.60
2022-12-15T17:41:08.712Z,0.60
2022-12-15T17:46:16.194Z,0.60
2022-12-15T17:51:23.439Z,1.04
2022-12-15T17:56:30.695Z,1.04
2022-12-15T18:01:37.971Z,1.04
2022-12-15T18:06:45.047Z,1.04
2022-12-15T18:11:52.575Z,1.92
2022-12-15T18:16:59.870Z,1.92
2022-12-15T18:22:07.372Z,1.92
2022-12-15T18:27:15.007Z,1.92
2022-12-15T18:32:22.618Z,2.34
2022-12-15T18:37:30.312Z,2.34
2022-12-15T18:42:38.059Z,2.34
2022-12-15T18:47:45.542Z,2.34
2022-12-15T18:52:53.056Z,2.34
2022-12-15T18:58:00.416Z,3.21
2022-12-15T19:03:08.084Z,2.75
2022-12-15T19:08:15.268Z,2.75
2022-12-15T19:13:22.816Z,2.75
2022-12-15T19:18:30.412Z,2.27
2022-12-15T19:23:37.730Z,2.75
2022-12-15T19:28:44.947Z,2.27
2022-12-15T19:33:52.451Z,2.27
2022-12-15T19:39:01.069Z,3.13
2022-12-15T19:44:08.803Z,3.13
2022-12-15T19:49:16.195Z,3.13
2022-12-15T19:54:23.816Z,3.13
2022-12-15T19:59:31.450Z,3.13
2022-12-15T20:04:38.936Z,3.13
2022-12-15T20:09:46.282Z,3.13
2022-12-15T20:14:53.513Z,3.13
2022-12-15T20:20:00.645Z,2.64
2022-12-15T20:25:07.872Z,3.13
2022-12-15T20:30:15.106Z,3.50
2022-12-15T20:35:22.328Z,3.50
2022-12-15T20:40:29.545Z,4.00
2022-12-15T20:45:36.881Z,3.50
2022-12-15T20:50:43.979Z,3.50
2022-12-15T20:55:51.198Z,3.50
2022-12-15T21:00:58.832Z,3.50
2022-12-15T21:06:06.031Z,3.50
2022-12-15T21:11:13.273Z,3.50
2022-12-15T21:16:20.611Z,3.50
2022-12-15T21:21:27.733Z,3.50
2022-12-15T21:26:34.888Z,3.50
2022-12-15T21:31:42.195Z,3.50
2022-12-15T21:36:49.365Z,3.50
2022-12-15T21:41:56.605Z,3.50
2022-12-15T21:47:03.899Z,3.50
2022-12-15T21:52:11.083Z,3.50
2022-12-15T21:57:18.293Z,3.50
2022-12-15T22:02:25.792Z,3.50
2022-12-15T22:07:32.781Z,3.50
2022-12-15T22:12:40.033Z,4.36
2022-12-15T22:17:47.355Z,4.36
2022-12-15T22:22:54.595Z,4.36
2022-12-15T22:28:01.807Z,3.84
2022-12-15T22:33:09.086Z,3.84
2022-12-15T22:38:16.303Z,3.84
2022-12-15T22:43:23.522Z,3.84
2022-12-15T22:48:31.176Z,3.84
2022-12-15T22:53:37.951Z,3.84
2022-12-15T22:58:45.140Z,3.84
2022-12-15T23:03:52.530Z,3.84
2022-12-15T23:08:59.552Z,3.84
2022-12-15T23:14:06.774Z,3.84
2022-12-15T23:19:13.981Z,3.84
2022-12-15T23:24:21.086Z,3.84
2022-12-15T23:29:28.320Z,3.84
2022-12-15T23:34:35.564Z,3.84
2022-12-15T23:39:42.771Z,3.84
2022-12-15T23:44:50.007Z,3.84
2022-12-15T23:49:57.225Z,3.84
2022-12-15T23:55:04.447Z,3.84
